Time;durP1;ratioP1;P1;durP2;ratioP2;P2;SDS_P1;SDS_P2;PMS_P1;PMS_P2;Temp;Humidity;BMP_temperature;BMP_pressure;BME280_temperature;BME280_humidity;BME280_pressure;Samples;Min_cycle;Max_cycle;Signal;HPM_P1;HPM_P2
2022/11/28 00:01:17;;;;;;;10.20;9.50;;;8.10;50.90;;;;;;20542;6845;309483;-77
2022/11/28 00:03:43;;;;;;;9.90;9.20;;;8.40;50.20;;;;;;20489;6845;337208;-77
2022/11/28 00:06:08;;;;;;;10.33;9.33;;;8.70;49.60;;;;;;20761;6844;117652;-79
2022/11/28 00:08:34;;;;;;;10.30;9.50;;;8.50;49.40;;;;;;20548;6845;337420;-77
2022/11/28 00:11:03;;;;;;;10.00;9.20;;;8.40;49.80;;;;;;20762;6845;116955;-76
2022/11/28 00:13:29;;;;;;;11.02;10.13;;;8.40;49.80;;;;;;20498;6861;279639;-78
2022/11/28 00:15:58;;;;;;;11.70;10.80;;;8.40;50.20;;;;;;20528;6845;335266;-79
2022/11/28 00:18:25;;;;;;;9.30;8.60;;;8.50;49.80;;;;;;20755;6845;117439;-77
2022/11/28 00:20:52;;;;;;;10.50;9.60;;;8.60;50.30;;;;;;20538;6845;279051;-77
2022/11/28 00:23:17;;;;;;;10.60;9.80;;;8.60;50.30;;;;;;20550;6845;308282;-78
2022/11/28 00:25:44;;;;;;;10.70;9.87;;;9.00;49.40;;;;;;20524;6845;310140;-79
2022/11/28 00:28:09;;;;;;;10.07;9.10;;;9.00;49.40;;;;;;20753;6845;119246;-78
2022/11/28 00:30:35;;;;;;;9.15;8.45;;;8.80;49.30;;;;;;20753;6845;119009;-78
2022/11/28 00:33:00;;;;;;;8.73;7.93;;;8.50;49.70;;;;;;20695;6861;117817;-78
2022/11/28 00:35:27;;;;;;;9.05;8.45;;;8.20;50.00;;;;;;20542;6845;277886;-78
2022/11/28 00:37:53;;;;;;;9.03;8.33;;;8.20;49.50;;;;;;20537;6845;293892;-76
2022/11/28 00:40:18;;;;;;;8.20;7.60;;;8.50;49.50;;;;;;20550;6845;306147;-76
2022/11/28 00:42:44;;;;;;;7.97;7.47;;;8.70;48.90;;;;;;20551;6845;278114;-77
2022/11/28 00:45:10;;;;;;;8.30;7.73;;;9.10;48.40;;;;;;20540;6845;310126;-80
2022/11/28 00:47:35;;;;;;;8.27;7.73;;;9.00;48.30;;;;;;20541;6845;278715;-79
2022/11/28 00:50:01;;;;;;;8.48;7.97;;;9.20;48.30;;;;;;20524;6845;307285;-76
2022/11/28 00:52:28;;;;;;;8.20;7.50;;;9.30;48.20;;;;;;20540;6845;307385;-76
2022/11/28 00:54:54;;;;;;;7.73;7.07;;;9.40;48.70;;;;;;20539;6845;278456;-76
2022/11/28 00:57:19;;;;;;;7.72;7.12;;;9.40;49.10;;;;;;20539;6845;294663;-77
2022/11/28 00:59:45;;;;;;;7.93;7.30;;;9.40;49.20;;;;;;20526;6845;278185;-77
2022/11/28 01:02:11;;;;;;;7.50;7.00;;;9.40;49.00;;;;;;20541;6845;307220;-77
2022/11/28 01:04:36;;;;;;;7.47;6.97;;;9.30;48.70;;;;;;20550;6845;339649;-78
2022/11/28 01:07:02;;;;;;;7.50;7.00;;;9.40;48.70;;;;;;20544;6845;306813;-77
2022/11/28 01:09:28;;;;;;;7.40;6.70;;;9.30;48.80;;;;;;20753;6845;116986;-80
2022/11/28 01:11:53;;;;;;;8.75;8.00;;;9.00;49.00;;;;;;20483;6862;309110;-76
2022/11/28 01:14:19;;;;;;;7.87;7.30;;;8.90;49.50;;;;;;20758;6845;117844;-76
2022/11/28 01:16:46;;;;;;;8.80;8.20;;;8.60;50.30;;;;;;20538;6845;310206;-77
2022/11/28 01:19:12;;;;;;;7.97;7.37;;;8.60;50.30;;;;;;20545;6844;280551;-77
2022/11/28 01:21:37;;;;;;;8.35;7.85;;;8.70;50.40;;;;;;20539;6845;310115;-77
2022/11/28 01:24:03;;;;;;;8.87;8.27;;;8.80;50.40;;;;;;20545;6845;277867;-77
2022/11/28 01:26:28;;;;;;;8.73;8.03;;;8.90;50.30;;;;;;20756;6845;117700;-77
2022/11/28 01:28:54;;;;;;;8.73;7.97;;;8.70;50.90;;;;;;20751;6845;117181;-78
2022/11/28 01:31:19;;;;;;;8.67;8.07;;;8.30;50.70;;;;;;20700;6861;117289;-78
2022/11/28 01:33:46;;;;;;;9.35;8.65;;;8.00;51.20;;;;;;20724;6845;121215;-76
2022/11/28 01:36:12;;;;;;;10.87;9.97;;;7.70;51.60;;;;;;20495;6861;309571;-77
2022/11/28 01:38:37;;;;;;;11.30;10.40;;;7.80;52.40;;;;;;20534;6845;308349;-77
2022/11/28 01:41:03;;;;;;;11.07;10.10;;;8.10;52.20;;;;;;20538;6845;339221;-77
2022/11/28 01:43:29;;;;;;;9.90;9.10;;;8.30;51.80;;;;;;20753;6845;117557;-78
2022/11/28 01:45:54;;;;;;;11.35;10.35;;;8.20;51.50;;;;;;20473;6861;310930;-79
2022/11/28 01:48:25;;;;;;;10.20;9.45;;;8.40;51.10;;;;;;20543;6845;308326;-78
2022/11/28 01:50:50;;;;;;;9.77;8.97;;;8.40;51.60;;;;;;20699;6861;117335;-77
2022/11/28 01:53:16;;;;;;;10.48;9.57;;;8.20;51.40;;;;;;20747;6845;117177;-77
2022/11/28 01:55:47;;;;;;;11.07;10.17;;;8.00;51.80;;;;;;20475;6862;338782;-81
2022/11/28 01:58:13;;;;;;;10.60;9.90;;;8.00;52.10;;;;;;20534;6845;281487;-78
2022/11/28 02:00:39;;;;;;;10.13;9.37;;;8.30;52.00;;;;;;20759;6845;117158;-77
2022/11/28 02:03:05;;;;;;;10.53;9.70;;;8.10;51.60;;;;;;20552;6845;337134;-78
2022/11/28 02:05:31;;;;;;;10.15;9.32;;;8.20;51.70;;;;;;20533;6845;306780;-78
2022/11/28 02:07:57;;;;;;;10.20;8.17;;;8.30;51.30;;;;;;20739;6845;117636;-78
2022/11/28 02:10:22;;;;;;;9.53;8.73;;;8.20;51.20;;;;;;20744;6845;116302;-79
2022/11/28 02:13:17;;;;;;;9.35;8.63;;;7.80;51.60;;;;;;20500;6845;339046;-77
2022/11/28 02:15:50;;;;;;;8.03;7.43;;;7.80;51.80;;;;;;20732;6845;117064;-78
2022/11/28 02:18:38;;;;;;;8.90;8.27;;;7.70;51.70;;;;;;20520;6845;337272;-80
2022/11/28 02:21:17;;;;;;;9.27;8.57;;;7.90;52.20;;;;;;20520;6845;308404;-79
2022/11/28 02:23:46;;;;;;;9.50;8.90;;;8.40;52.20;;;;;;20516;6845;308111;-79
2022/11/28 02:26:28;;;;;;;9.63;9.03;;;8.40;51.30;;;;;;20501;6845;308124;-78
2022/11/28 02:29:30;;;;;;;9.30;8.50;;;8.60;50.80;;;;;;20757;6843;117001;-78
2022/11/28 02:32:10;;;;;;;9.75;8.95;;;8.30;51.40;;;;;;20522;6845;339198;-79
2022/11/28 02:35:01;;;;;;;9.95;9.25;;;8.40;51.50;;;;;;20529;6845;304299;-78
2022/11/28 02:37:30;;;;;;;9.77;8.90;;;8.50;51.20;;;;;;20757;6845;117335;-79
2022/11/28 02:40:14;;;;;;;9.53;8.83;;;8.30;51.10;;;;;;20526;6845;279456;-78
2022/11/28 02:42:46;;;;;;;9.48;8.77;;;8.20;51.70;;;;;;20510;6845;279033;-78
2022/11/28 02:45:12;;;;;;;9.95;9.25;;;8.40;51.60;;;;;;20525;6845;334347;-79
2022/11/28 02:47:45;;;;;;;8.53;7.83;;;8.60;51.30;;;;;;20728;6845;117517;-80
2022/11/28 02:50:24;;;;;;;10.40;9.50;;;8.50;51.30;;;;;;20261;6845;292260;-81
2022/11/28 02:52:59;;;;;;;9.33;8.60;;;8.40;51.50;;;;;;20744;6845;117003;-80
2022/11/28 02:55:25;;;;;;;9.67;8.80;;;8.30;51.50;;;;;;20730;6845;118512;-79
2022/11/28 02:57:52;;;;;;;9.90;9.20;;;8.00;51.80;;;;;;20527;6845;307170;-80
2022/11/28 03:00:24;;;;;;;10.60;9.80;;;8.00;52.30;;;;;;20491;6861;308769;-78
2022/11/28 03:03:10;;;;;;;10.98;10.18;;;8.30;51.90;;;;;;20537;6847;337857;-78
2022/11/28 03:05:42;;;;;;;10.82;10.02;;;8.50;51.50;;;;;;19957;6845;277959;-78
2022/11/28 03:08:14;;;;;;;9.53;8.67;;;8.70;50.90;;;;;;20550;6845;117492;-78
2022/11/28 03:10:43;;;;;;;10.40;9.60;;;8.50;51.00;;;;;;20492;6845;277910;-79
2022/11/28 03:13:35;;;;;;;9.70;8.80;;;8.50;51.20;;;;;;20732;6845;116511;-78
2022/11/28 03:16:09;;;;;;;9.30;8.50;;;8.30;51.10;;;;;;20734;6845;117453;-79
2022/11/28 03:18:36;;;;;;;9.73;8.83;;;7.70;51.90;;;;;;20696;6845;123160;-77
2022/11/28 03:21:21;;;;;;;10.52;9.73;;;7.70;51.90;;;;;;20506;6845;307258;-77
2022/11/28 03:23:53;;;;;;;9.98;9.27;;;7.80;51.80;;;;;;20522;6845;310012;-77
2022/11/28 03:26:50;;;;;;;8.83;8.23;;;8.10;51.40;;;;;;20718;6845;117198;-77
2022/11/28 03:29:22;;;;;;;9.57;8.63;;;8.10;51.20;;;;;;20754;6845;117137;-79
2022/11/28 03:31:52;;;;;;;8.93;8.23;;;7.80;51.60;;;;;;20402;6845;119374;-77
2022/11/28 03:34:19;;;;;;;9.47;8.77;;;7.60;51.90;;;;;;20532;6845;294554;-79
2022/11/28 03:36:45;;;;;;;10.23;9.43;;;7.70;52.70;;;;;;20525;6845;306470;-78
2022/11/28 03:39:10;;;;;;;9.55;8.75;;;8.10;51.40;;;;;;20741;6845;118982;-77
2022/11/28 03:41:43;;;;;;;9.02;8.30;;;8.00;51.10;;;;;;20741;6843;117442;-78
2022/11/28 03:44:11;;;;;;;8.13;7.60;;;7.80;51.40;;;;;;20750;6845;116378;-78
2022/11/28 03:46:37;;;;;;;9.00;8.20;;;7.60;51.70;;;;;;20805;6845;117679;-81
2022/11/28 03:49:02;;;;;;;9.13;8.23;;;7.50;52.00;;;;;;20811;6845;115938;-78
2022/11/28 03:51:32;;;;;;;9.63;8.48;;;7.20;52.40;;;;;;20768;6845;117213;-77
2022/11/28 03:54:10;;;;;;;9.30;8.57;;;7.10;52.30;;;;;;20736;6845;116879;-79
2022/11/28 03:56:45;;;;;;;9.00;8.23;;;7.00;52.50;;;;;;20770;6845;116350;-79
2022/11/28 03:59:24;;;;;;;9.07;8.30;;;6.90;52.80;;;;;;20720;6845;120912;-78
2022/11/28 04:01:52;;;;;;;8.67;7.93;;;6.80;53.00;;;;;;20720;6845;117487;-77
2022/11/28 04:04:27;;;;;;;10.02;9.23;;;6.70;53.10;;;;;;20534;6845;280053;-79
2022/11/28 04:07:16;;;;;;;8.93;8.30;;;7.00;53.90;;;;;;20741;6845;121754;-77
2022/11/28 04:10:05;;;;;;;8.93;8.33;;;7.10;53.40;;;;;;20735;6845;117814;-77
2022/11/28 04:12:37;;;;;;;9.77;9.00;;;7.00;54.00;;;;;;20540;6845;309739;-77
2022/11/28 04:15:13;;;;;;;9.38;8.68;;;7.20;53.50;;;;;;20539;6845;306835;-79
2022/11/28 04:17:38;;;;;;;8.80;8.20;;;7.60;52.90;;;;;;19692;6851;278910;-78
2022/11/28 04:20:07;;;;;;;9.50;8.80;;;7.90;51.80;;;;;;20497;6845;278261;-78
2022/11/28 04:22:32;;;;;;;9.27;8.68;;;8.20;51.60;;;;;;20513;6845;280665;-78
2022/11/28 04:25:02;;;;;;;8.60;7.90;;;8.40;51.50;;;;;;20736;6848;117042;-78
2022/11/28 04:27:27;;;;;;;9.50;8.80;;;8.20;51.30;;;;;;20467;6862;310366;-78
2022/11/28 04:29:53;;;;;;;8.97;8.37;;;8.20;50.80;;;;;;20474;6848;339967;-82
2022/11/28 04:32:19;;;;;;;8.63;7.93;;;8.60;49.80;;;;;;20475;6862;280980;-80
2022/11/28 04:34:45;;;;;;;8.85;8.30;;;8.50;49.70;;;;;;20464;6866;338176;-78
2022/11/28 04:37:13;;;;;;;8.25;7.75;;;8.70;49.20;;;;;;20457;6866;307977;-76
2022/11/28 04:39:41;;;;;;;8.20;7.60;;;8.90;49.10;;;;;;20721;6851;117283;-76
2022/11/28 04:42:12;;;;;;;7.60;6.87;;;8.70;49.30;;;;;;20723;6851;117593;-76
2022/11/28 04:44:43;;;;;;;9.10;8.47;;;8.30;49.70;;;;;;20516;6851;305858;-75
2022/11/28 04:47:11;;;;;;;8.20;7.60;;;8.10;50.60;;;;;;20717;6851;117225;-76
2022/11/28 04:49:40;;;;;;;9.67;8.90;;;8.20;51.40;;;;;;20512;6851;278219;-78
2022/11/28 04:52:16;;;;;;;36.40;23.87;;;8.10;51.30;;;;;;20605;6852;118112;-77
2022/11/28 04:55:16;;;;;;;13.63;12.17;;;8.00;51.20;;;;;;20672;6854;119953;-77
2022/11/28 04:57:46;;;;;;;9.43;8.63;;;7.70;51.50;;;;;;20719;6837;117294;-77
2022/11/28 05:00:14;;;;;;;9.27;8.43;;;7.40;51.90;;;;;;20759;6837;117847;-76
2022/11/28 05:02:42;;;;;;;10.27;8.90;;;7.10;52.20;;;;;;20771;6837;119596;-79
2022/11/28 05:05:13;;;;;;;9.83;9.03;;;7.00;52.50;;;;;;20757;6837;117526;-79
2022/11/28 05:07:41;;;;;;;9.70;8.80;;;6.90;52.80;;;;;;20733;6837;117276;-79
2022/11/28 05:10:08;;;;;;;11.67;10.67;;;6.70;52.90;;;;;;20574;6837;278810;-80
2022/11/28 05:12:36;;;;;;;11.73;10.83;;;6.90;54.10;;;;;;20570;6837;277931;-78
2022/11/28 05:15:04;;;;;;;11.33;10.33;;;7.30;54.20;;;;;;20765;6837;117281;-78
2022/11/28 05:17:32;;;;;;;10.27;9.33;;;7.30;53.70;;;;;;20752;6837;117770;-78
2022/11/28 05:20:00;;;;;;;10.00;9.20;;;7.10;53.80;;;;;;20736;6837;117151;-78
2022/11/28 05:22:27;;;;;;;11.68;10.77;;;6.90;54.60;;;;;;20550;6837;339138;-79
2022/11/28 05:24:55;;;;;;;11.77;10.88;;;7.10;54.70;;;;;;20561;6837;336515;-79
2022/11/28 05:27:22;;;;;;;11.03;10.23;;;7.40;54.40;;;;;;20572;6837;278037;-79
2022/11/28 05:29:52;;;;;;;11.43;10.53;;;7.70;54.40;;;;;;20554;6837;301602;-80
2022/11/28 05:32:18;;;;;;;11.67;10.77;;;7.90;53.20;;;;;;20567;6837;279651;-82
2022/11/28 05:34:46;;;;;;;13.47;10.17;;;8.10;52.50;;;;;;20767;6837;117433;-76
2022/11/28 05:37:15;;;;;;;9.60;8.80;;;7.90;52.40;;;;;;20766;6837;117653;-78
2022/11/28 05:39:43;;;;;;;10.03;9.27;;;7.60;52.90;;;;;;20537;6837;310026;-79
2022/11/28 05:42:10;;;;;;;10.27;8.87;;;7.60;52.90;;;;;;20773;6837;117240;-77
2022/11/28 05:44:38;;;;;;;9.93;8.20;;;7.60;52.80;;;;;;20764;6837;121823;-77
2022/11/28 05:47:06;;;;;;;8.40;7.80;;;7.30;53.00;;;;;;20749;6837;117458;-77
2022/11/28 05:49:35;;;;;;;8.93;8.32;;;7.30;53.20;;;;;;20555;6837;336766;-77
2022/11/28 05:52:03;;;;;;;7.97;7.37;;;7.30;53.00;;;;;;20752;6837;117399;-77
2022/11/28 05:54:31;;;;;;;7.23;6.70;;;7.40;52.80;;;;;;20763;6837;119323;-78
2022/11/28 05:57:00;;;;;;;7.13;6.60;;;7.10;53.10;;;;;;20777;6837;117700;-78
2022/11/28 05:59:27;;;;;;;6.93;6.33;;;7.10;53.10;;;;;;20796;6837;117892;-81
2022/11/28 06:01:56;;;;;;;7.90;7.33;;;7.00;53.30;;;;;;20539;6837;331952;-78
2022/11/28 06:04:24;;;;;;;6.87;6.37;;;7.20;52.60;;;;;;20765;6835;117023;-77
2022/11/28 06:06:52;;;;;;;7.07;6.57;;;7.30;52.30;;;;;;20776;6836;118529;-77
2022/11/28 06:09:20;;;;;;;8.52;7.93;;;7.10;52.30;;;;;;20555;6837;337253;-77
2022/11/28 06:11:48;;;;;;;7.40;6.90;;;7.30;52.10;;;;;;20536;6837;280412;-77
2022/11/28 06:14:15;;;;;;;6.83;6.33;;;7.70;51.60;;;;;;20786;6837;121363;-78
2022/11/28 06:16:43;;;;;;;6.60;6.10;;;7.70;51.40;;;;;;20763;6837;117003;-77
2022/11/28 06:19:11;;;;;;;7.10;6.60;;;7.50;51.60;;;;;;20552;6837;338533;-76
2022/11/28 06:21:40;;;;;;;7.18;6.68;;;7.60;51.20;;;;;;20558;6837;337251;-77
2022/11/28 06:24:08;;;;;;;6.90;6.50;;;7.90;51.00;;;;;;20561;6837;329475;-76
2022/11/28 06:26:37;;;;;;;6.00;5.40;;;8.20;49.50;;;;;;20770;6837;116850;-80
2022/11/28 06:29:04;;;;;;;6.17;5.77;;;8.10;49.50;;;;;;20555;6837;312599;-74
2022/11/28 06:31:33;;;;;;;5.03;4.73;;;8.10;49.20;;;;;;20792;6837;117268;-75
2022/11/28 06:34:01;;;;;;;5.20;4.80;;;8.10;48.20;;;;;;20539;6837;308083;-73
2022/11/28 06:36:29;;;;;;;5.00;4.60;;;8.10;48.20;;;;;;20766;6837;116938;-76
2022/11/28 06:38:57;;;;;;;5.00;4.60;;;8.00;48.40;;;;;;20767;6837;117926;-77
2022/11/28 06:41:26;;;;;;;4.77;4.47;;;7.70;49.40;;;;;;20762;6837;116879;-75
2022/11/28 06:43:53;;;;;;;5.00;4.70;;;7.70;49.40;;;;;;20538;6837;337607;-74
2022/11/28 06:46:21;;;;;;;5.20;4.80;;;7.80;48.70;;;;;;20559;6837;280856;-74
2022/11/28 06:48:49;;;;;;;4.63;4.30;;;8.10;48.10;;;;;;20782;6837;117289;-73
2022/11/28 06:51:18;;;;;;;4.40;4.10;;;8.10;48.20;;;;;;20785;6837;118988;-74
2022/11/28 06:53:46;;;;;;;4.33;4.03;;;7.90;48.60;;;;;;20755;6837;119222;-74
2022/11/28 06:56:14;;;;;;;4.22;3.92;;;7.70;48.90;;;;;;20558;6837;336186;-74
2022/11/28 06:59:00;;;;;;;4.72;4.43;;;7.80;48.00;;;;;;20553;6837;307597;-74
2022/11/28 07:01:38;;;;;;;4.90;4.50;;;8.20;47.10;;;;;;20637;6745;278116;-75
2022/11/28 07:04:16;;;;;;;5.27;4.87;;;8.50;46.70;;;;;;20816;6777;119125;-74
2022/11/28 07:06:54;;;;;;;4.47;4.18;;;8.40;47.00;;;;;;20429;6829;310060;-73
2022/11/28 07:09:32;;;;;;;4.90;4.50;;;8.50;48.00;;;;;;20826;6764;119120;-73
2022/11/28 07:12:09;;;;;;;4.20;3.90;;;8.40;48.10;;;;;;20854;6749;115253;-73
2022/11/28 07:14:47;;;;;;;4.40;4.10;;;8.10;48.50;;;;;;20892;6749;119395;-71
2022/11/28 07:17:25;;;;;;;4.63;4.30;;;7.80;48.80;;;;;;20665;6748;309343;-75
2022/11/28 07:20:03;;;;;;;3.93;3.73;;;8.00;48.80;;;;;;20899;6736;117459;-72
2022/11/28 07:22:42;;;;;;;4.27;3.97;;;8.00;48.70;;;;;;20909;6747;117716;-73
2022/11/28 07:25:20;;;;;;;4.90;4.60;;;8.00;48.80;;;;;;20512;6768;280033;-74
2022/11/28 07:27:57;;;;;;;4.80;4.50;;;7.90;48.70;;;;;;20644;6749;308929;-72
2022/11/28 07:30:35;;;;;;;16.62;14.93;;;8.40;48.30;;;;;;20672;6749;281039;-72
2022/11/28 07:33:13;;;;;;;23.98;21.58;;;8.60;47.30;;;;;;20667;6749;340864;-72
2022/11/28 07:35:52;;;;;;;14.77;13.47;;;9.10;46.70;;;;;;20544;6749;340709;-73
2022/11/28 07:38:30;;;;;;;5.30;5.00;;;9.00;46.60;;;;;;20613;6764;309741;-73
2022/11/28 07:41:11;;;;;;;6.47;6.07;;;9.20;46.10;;;;;;20680;6749;277505;-75
2022/11/28 07:43:46;;;;;;;7.00;6.50;;;9.30;47.40;;;;;;20653;6751;278787;-74
2022/11/28 07:46:24;;;;;;;7.50;7.00;;;9.30;47.70;;;;;;20746;6746;120470;-72
2022/11/28 07:49:03;;;;;;;7.80;7.20;;;9.00;47.90;;;;;;20929;6734;117138;-75
2022/11/28 07:51:41;;;;;;;7.97;7.27;;;8.60;48.50;;;;;;20924;6734;117379;-72
2022/11/28 07:54:19;;;;;;;20.13;16.07;;;8.20;49.10;;;;;;20714;6734;317897;-72
2022/11/28 07:56:57;;;;;;;11.93;10.97;;;8.30;50.00;;;;;;20502;6805;310353;-71
2022/11/28 07:59:35;;;;;;;11.73;10.80;;;8.50;49.90;;;;;;20684;6749;279317;-72
2022/11/28 08:02:12;;;;;;;13.13;12.20;;;8.70;49.80;;;;;;20653;6749;309613;-71
2022/11/28 08:04:51;;;;;;;10.48;9.70;;;8.90;49.50;;;;;;20639;6749;310260;-72
2022/11/28 08:07:28;;;;;;;11.37;10.67;;;9.00;49.20;;;;;;20908;6749;119652;-71
2022/11/28 08:10:07;;;;;;;8.50;7.90;;;8.80;49.30;;;;;;20874;6749;116634;-72
2022/11/28 08:12:44;;;;;;;9.90;9.10;;;8.40;49.80;;;;;;20714;6734;305260;-72
2022/11/28 08:15:22;;;;;;;8.47;7.73;;;8.40;50.20;;;;;;20876;6734;117234;-72
2022/11/28 08:18:00;;;;;;;10.03;9.27;;;8.30;50.20;;;;;;20911;6734;116961;-71
2022/11/28 08:20:38;;;;;;;8.60;8.00;;;8.00;50.50;;;;;;20928;6734;117295;-74
2022/11/28 08:23:16;;;;;;;8.77;8.07;;;7.80;50.80;;;;;;20825;6764;116786;-72
2022/11/28 08:25:54;;;;;;;10.00;9.20;;;7.60;51.10;;;;;;20564;6749;280401;-75
2022/11/28 08:28:32;;;;;;;8.70;8.00;;;7.80;51.60;;;;;;20883;6749;117046;-73
2022/11/28 08:31:10;;;;;;;8.63;7.97;;;7.90;51.40;;;;;;20847;6763;117293;-73
2022/11/28 08:33:48;;;;;;;8.40;7.70;;;7.80;51.50;;;;;;20864;6749;117896;-73
2022/11/28 08:36:28;;;;;;;11.80;10.90;;;7.70;51.70;;;;;;20571;6734;309622;-73
2022/11/28 08:39:05;;;;;;;13.00;11.90;;;7.90;52.40;;;;;;20826;6768;117444;-73
2022/11/28 08:41:43;;;;;;;11.63;10.73;;;8.00;52.00;;;;;;20875;6749;117266;-73
2022/11/28 08:44:19;;;;;;;8.03;7.43;;;7.80;52.60;;;;;;20946;6734;118116;-73
2022/11/28 08:46:56;;;;;;;7.70;7.07;;;7.80;52.10;;;;;;20912;6734;116636;-73
2022/11/28 08:49:32;;;;;;;7.60;7.00;;;7.60;52.10;;;;;;20937;6734;116931;-73
2022/11/28 08:52:11;;;;;;;8.07;7.37;;;7.60;52.20;;;;;;20909;6734;116622;-73
2022/11/28 08:54:49;;;;;;;6.23;5.77;;;7.50;52.20;;;;;;20896;6734;120793;-73
2022/11/28 08:57:27;;;;;;;7.07;6.57;;;7.50;52.30;;;;;;20925;6734;116758;-73
2022/11/28 09:00:06;;;;;;;6.90;6.20;;;7.50;53.00;;;;;;20902;6734;116790;-74
2022/11/28 09:02:44;;;;;;;7.60;7.00;;;7.50;52.40;;;;;;20720;6734;308962;-73
2022/11/28 09:05:21;;;;;;;6.20;5.80;;;7.80;51.20;;;;;;20657;6734;279358;-73
2022/11/28 09:07:59;;;;;;;6.77;6.27;;;8.30;50.20;;;;;;20659;6749;277627;-74
2022/11/28 09:10:37;;;;;;;7.50;7.00;;;8.80;49.30;;;;;;20720;6734;306098;-74
2022/11/28 09:13:15;;;;;;;9.63;8.93;;;9.10;49.00;;;;;;20734;6729;334872;-74
2022/11/28 09:15:54;;;;;;;17.00;15.70;;;9.30;48.70;;;;;;20514;6757;280269;-75
2022/11/28 09:18:33;;;;;;;10.60;9.63;;;9.30;48.40;;;;;;20885;6748;118571;-73
2022/11/28 09:21:11;;;;;;;7.80;7.20;;;9.30;48.40;;;;;;20801;6774;119154;-73
2022/11/28 09:23:49;;;;;;;8.07;7.20;;;9.00;48.90;;;;;;20879;6746;116906;-74
2022/11/28 09:26:28;;;;;;;6.47;5.97;;;8.70;49.40;;;;;;20608;6731;336322;-71
2022/11/28 09:29:05;;;;;;;5.57;5.07;;;8.90;49.30;;;;;;20943;6733;116837;-71
2022/11/28 09:31:44;;;;;;;10.87;9.97;;;8.90;49.20;;;;;;20929;6733;118042;-74
2022/11/28 09:34:22;;;;;;;10.70;9.90;;;8.70;49.30;;;;;;20693;6746;307272;-73
2022/11/28 09:37:00;;;;;;;6.80;6.30;;;8.90;48.40;;;;;;20562;6787;308157;-72
2022/11/28 09:39:38;;;;;;;6.83;6.23;;;9.30;47.60;;;;;;20955;6731;118039;-72
2022/11/28 09:42:19;;;;;;;7.97;7.37;;;9.20;47.70;;;;;;20733;6730;306357;-73
2022/11/28 09:45:07;;;;;;;7.13;6.63;;;9.40;50.10;;;;;;20653;6787;280281;-72
2022/11/28 09:47:46;;;;;;;8.43;7.53;;;9.60;49.60;;;;;;20712;6731;276366;-73
2022/11/28 09:50:24;;;;;;;6.77;6.13;;;9.90;49.50;;;;;;20732;6731;302298;-72
2022/11/28 09:53:25;;;;;;;6.07;5.57;;;10.10;46.80;;;;;;20743;6731;307817;-74
2022/11/28 09:56:06;;;;;;;5.47;5.17;;;10.20;45.60;;;;;;20769;6746;117519;-71
2022/11/28 09:58:50;;;;;;;5.57;5.17;;;10.00;46.00;;;;;;20742;6731;307187;-71
2022/11/28 10:01:41;;;;;;;5.07;4.67;;;9.90;46.70;;;;;;20951;6731;118690;-72
2022/11/28 10:04:23;;;;;;;6.10;5.60;;;9.80;47.00;;;;;;20930;6731;117782;-71
2022/11/28 10:07:07;;;;;;;6.20;5.70;;;9.50;47.50;;;;;;20737;6731;280488;-70
2022/11/28 10:09:58;;;;;;;6.23;5.73;;;9.60;47.90;;;;;;20914;6731;116623;-71
2022/11/28 10:12:55;;;;;;;6.20;5.70;;;9.50;47.90;;;;;;20940;6731;117498;-72
2022/11/28 10:15:51;;;;;;;7.50;6.80;;;9.30;49.10;;;;;;20662;6731;279860;-70
2022/11/28 10:18:37;;;;;;;7.70;6.73;;;9.50;49.50;;;;;;20938;6741;116830;-71
2022/11/28 10:21:34;;;;;;;7.23;6.73;;;9.50;49.40;;;;;;20763;6727;277305;-72
2022/11/28 10:24:12;;;;;;;7.20;6.70;;;9.70;50.40;;;;;;20728;6783;277424;-70
2022/11/28 10:26:50;;;;;;;6.80;6.20;;;10.00;48.50;;;;;;20753;6742;117563;-73
2022/11/28 10:29:30;;;;;;;6.80;6.20;;;10.00;48.50;;;;;;20697;6742;308413;-72
2022/11/28 10:32:08;;;;;;;6.00;5.50;;;10.00;47.30;;;;;;20657;6742;304894;-71
2022/11/28 10:34:58;;;;;;;5.60;5.20;;;10.30;45.90;;;;;;20933;6731;119425;-72
2022/11/28 10:37:35;;;;;;;6.10;5.60;;;10.30;46.10;;;;;;20620;6761;278338;-75
2022/11/28 10:40:17;;;;;;;6.90;5.50;;;10.30;45.40;;;;;;20862;6749;117616;-75
2022/11/28 10:43:03;;;;;;;5.60;5.10;;;10.30;45.70;;;;;;20842;6761;117482;-77
2022/11/28 10:45:54;;;;;;;6.20;5.70;;;10.00;46.10;;;;;;20795;6746;117805;-75
2022/11/28 10:49:04;;;;;;;7.23;6.50;;;9.80;47.70;;;;;;20874;6754;117027;-75
2022/11/28 10:52:04;;;;;;;7.47;6.87;;;9.70;48.20;;;;;;20629;6756;337817;-73
2022/11/28 10:54:53;;;;;;;6.80;6.20;;;10.30;46.90;;;;;;20624;6760;306260;-74
2022/11/28 10:57:44;;;;;;;5.60;5.10;;;10.30;46.80;;;;;;20690;6741;310164;-71
2022/11/28 11:00:22;;;;;;;6.80;6.33;;;10.70;46.40;;;;;;20327;6797;117259;-77
2022/11/28 11:03:01;;;;;;;6.30;5.80;;;10.60;45.30;;;;;;20728;6730;276176;-73
2022/11/28 11:05:38;;;;;;;6.23;5.73;;;10.60;45.20;;;;;;20865;6730;116830;-73
2022/11/28 11:08:19;;;;;;;5.77;5.27;;;10.60;45.50;;;;;;20902;6746;118163;-74
2022/11/28 11:10:57;;;;;;;5.93;5.37;;;10.30;46.00;;;;;;20954;6731;117342;-74
2022/11/28 11:13:35;;;;;;;6.90;5.47;;;10.10;46.40;;;;;;20888;6746;117802;-73
2022/11/28 11:16:13;;;;;;;7.70;6.10;;;10.00;46.80;;;;;;20424;6830;282236;-73
2022/11/28 11:18:55;;;;;;;5.73;5.23;;;10.20;46.50;;;;;;20812;6774;117548;-73
2022/11/28 11:21:28;;;;;;;6.43;5.93;;;10.20;46.40;;;;;;20669;6746;307735;-75
2022/11/28 11:24:11;;;;;;;6.10;5.70;;;10.40;46.30;;;;;;20706;6731;307399;-76
2022/11/28 11:26:49;;;;;;;6.30;5.80;;;10.80;45.60;;;;;;20786;6731;117672;-77
2022/11/28 11:29:34;;;;;;;6.73;6.13;;;10.70;45.40;;;;;;20782;6777;117965;-78
2022/11/28 11:32:20;;;;;;;5.83;5.20;;;10.60;45.90;;;;;;20786;6774;117105;-72
2022/11/28 11:34:57;;;;;;;5.23;4.73;;;10.20;46.00;;;;;;20764;6776;117144;-74
2022/11/28 11:37:38;;;;;;;6.23;5.63;;;10.20;46.50;;;;;;20638;6761;309624;-73
2022/11/28 11:40:26;;;;;;;6.67;6.13;;;10.50;46.20;;;;;;20646;6759;280649;-75
2022/11/28 11:43:04;;;;;;;14.73;10.33;;;10.90;45.90;;;;;;20740;6794;118695;-74
2022/11/28 11:45:42;;;;;;;6.43;5.83;;;10.90;45.80;;;;;;20697;6832;119086;-75
2022/11/28 11:48:20;;;;;;;6.10;5.60;;;10.80;46.30;;;;;;20628;6761;309225;-74
2022/11/28 11:50:58;;;;;;;6.33;5.33;;;10.90;46.50;;;;;;20926;6789;117540;-77
2022/11/28 11:53:37;;;;;;;5.73;5.17;;;11.00;46.40;;;;;;20939;6733;117018;-76
2022/11/28 11:56:16;;;;;;;5.62;5.22;;;11.00;46.80;;;;;;20611;6733;307777;-77
2022/11/28 11:58:53;;;;;;;6.03;5.50;;;11.00;46.80;;;;;;20719;6733;276700;-74
2022/11/28 12:01:31;;;;;;;6.10;5.63;;;11.30;46.70;;;;;;20944;6733;117114;-74
2022/11/28 12:04:09;;;;;;;5.67;5.27;;;11.30;46.40;;;;;;20930;6732;118398;-75
2022/11/28 12:06:50;;;;;;;5.93;5.10;;;11.10;46.70;;;;;;20801;6732;117252;-76
2022/11/28 12:09:32;;;;;;;5.80;5.30;;;10.90;47.10;;;;;;20927;6732;116938;-73
2022/11/28 12:12:28;;;;;;;5.93;5.43;;;10.90;47.70;;;;;;20697;6732;288757;-72
2022/11/28 12:15:04;;;;;;;5.93;5.53;;;10.90;47.70;;;;;;20675;6732;307577;-72
2022/11/28 12:17:44;;;;;;;6.40;5.90;;;11.40;47.10;;;;;;20931;6732;117630;-73
2022/11/28 12:20:29;;;;;;;6.83;6.23;;;11.40;46.80;;;;;;20633;6759;308999;-75
2022/11/28 12:23:16;;;;;;;24.07;15.53;;;11.50;47.40;;;;;;20857;6761;117002;-75
2022/11/28 12:26:03;;;;;;;11.07;9.77;;;11.50;47.40;;;;;;20729;6761;120652;-74
2022/11/28 12:28:52;;;;;;;11.00;9.40;;;11.20;47.80;;;;;;20654;6761;278242;-72
2022/11/28 12:31:31;;;;;;;8.60;7.80;;;11.30;49.10;;;;;;20654;6761;308567;-73
2022/11/28 12:34:25;;;;;;;8.50;7.70;;;11.60;48.30;;;;;;20865;6761;118714;-74
2022/11/28 12:37:15;;;;;;;8.70;7.73;;;11.40;48.00;;;;;;20859;6761;117110;-73
2022/11/28 12:40:03;;;;;;;8.40;7.27;;;11.10;48.30;;;;;;20835;6761;116974;-72
2022/11/28 12:42:47;;;;;;;8.40;7.60;;;10.80;48.70;;;;;;20652;6761;279083;-72
2022/11/28 12:46:01;;;;;;;8.60;6.70;;;11.00;50.30;;;;;;20786;6761;117164;-72
2022/11/28 12:49:03;;;;;;;7.37;6.80;;;11.00;50.00;;;;;;19534;7133;293378;-72
2022/11/28 12:51:43;;;;;;;7.68;7.03;;;11.20;50.30;;;;;;19501;7133;352167;-74
2022/11/28 12:54:29;;;;;;;6.80;6.20;;;11.50;49.10;;;;;;20229;6812;118093;-74
2022/11/28 12:57:16;;;;;;;5.87;5.37;;;11.40;48.80;;;;;;20861;6761;120577;-73
2022/11/28 13:00:09;;;;;;;7.10;5.40;;;11.20;49.10;;;;;;20839;6761;119424;-75
2022/11/28 13:02:57;;;;;;;5.37;4.97;;;11.00;50.00;;;;;;20882;6761;118967;-74
2022/11/28 13:05:40;;;;;;;4.90;4.50;;;10.80;49.60;;;;;;20791;6761;117454;-74
2022/11/28 13:08:27;;;;;;;5.80;5.27;;;10.70;49.80;;;;;;20644;6761;308508;-75
2022/11/28 13:11:27;;;;;;;5.73;5.23;;;10.90;50.00;;;;;;20635;6761;308502;-75
2022/11/28 13:14:31;;;;;;;5.00;4.60;;;11.40;49.00;;;;;;20841;6761;117535;-77
2022/11/28 13:17:12;;;;;;;5.60;5.10;;;11.40;48.70;;;;;;20630;6760;279055;-76
2022/11/28 13:19:53;;;;;;;18.93;16.67;;;11.60;48.30;;;;;;20615;6759;279485;-73
2022/11/28 13:22:34;;;;;;;12.87;10.60;;;11.90;47.20;;;;;;20639;6759;277855;-75